createdAt,value
2023-04-23T00:01:39.350Z,67.68
2023-04-23T00:04:09.336Z,68.07
2023-04-23T00:06:37.169Z,67.07
2023-04-23T00:09:07.005Z,67.28
2023-04-23T00:11:35.407Z,67.23
2023-04-23T00:14:02.987Z,69.55
2023-04-23T00:16:30.953Z,68.44
2023-04-23T00:18:58.635Z,69.01
2023-04-23T00:21:27.689Z,67.66
2023-04-23T00:23:55.215Z,68.47
2023-04-23T00:26:22.869Z,69.16
2023-04-23T00:28:50.318Z,69.34
2023-04-23T00:31:18.667Z,70.26
2023-04-23T00:33:46.427Z,71.55
2023-04-23T00:36:13.963Z,71.07
2023-04-23T00:38:41.407Z,70.69
2023-04-23T00:41:09.453Z,70.59
2023-04-23T00:43:38.047Z,71.08
2023-04-23T00:46:06.119Z,71.08
2023-04-23T00:48:34.982Z,70.67
2023-04-23T00:51:06.194Z,70.64
2023-04-23T00:53:34.228Z,70.09
2023-04-23T00:56:02.260Z,69.50
2023-04-23T00:58:29.985Z,68.54
2023-04-23T01:00:58.020Z,69.00
2023-04-23T01:03:26.580Z,68.57
2023-04-23T01:05:54.319Z,68.82
2023-04-23T01:08:23.710Z,70.52
2023-04-23T01:10:51.332Z,71.07
2023-04-23T01:13:18.824Z,70.29
2023-04-23T01:15:46.604Z,70.97
2023-04-23T01:18:15.955Z,71.44
2023-04-23T01:20:43.861Z,71.78
2023-04-23T01:23:11.901Z,71.57
2023-04-23T01:25:39.330Z,70.81
2023-04-23T01:28:06.834Z,71.03
2023-04-23T01:30:35.361Z,70.32
2023-04-23T01:33:03.614Z,69.96
2023-04-23T01:35:31.945Z,70.06
2023-04-23T01:38:02.959Z,70.32
2023-04-23T01:40:30.831Z,71.06
2023-04-23T01:42:58.516Z,71.88
2023-04-23T01:45:26.451Z,72.79
2023-04-23T01:47:54.196Z,72.02
2023-04-23T01:50:24.459Z,71.19
2023-04-23T01:52:52.250Z,72.04
2023-04-23T01:55:20.898Z,71.00
2023-04-23T01:57:48.341Z,70.75
2023-04-23T02:00:17.178Z,72.15
2023-04-23T02:02:45.425Z,72.46
2023-04-23T02:05:16.456Z,72.29
2023-04-23T02:07:45.452Z,72.36
2023-04-23T02:10:13.460Z,71.60
2023-04-23T02:12:41.575Z,71.32
2023-04-23T02:15:11.200Z,71.64
2023-04-23T02:17:40.250Z,71.36
2023-04-23T02:20:11.720Z,71.14
2023-04-23T02:22:41.453Z,71.79
2023-04-23T02:25:09.609Z,72.06
2023-04-23T02:27:37.134Z,71.09
2023-04-23T02:30:05.004Z,71.30
2023-04-23T02:32:32.747Z,71.37
2023-04-23T02:35:02.075Z,70.78
2023-04-23T02:37:29.537Z,71.10
2023-04-23T02:39:57.217Z,71.42
2023-04-23T02:42:24.625Z,72.00
2023-04-23T02:44:52.047Z,71.42
2023-04-23T02:47:19.894Z,70.36
2023-04-23T02:49:47.336Z,70.95
2023-04-23T02:52:14.794Z,71.80
2023-04-23T02:54:42.666Z,71.51
2023-04-23T02:57:10.319Z,71.89
2023-04-23T02:59:38.611Z,72.10
2023-04-23T03:02:06.477Z,71.33
2023-04-23T03:04:34.493Z,71.75
2023-04-23T03:07:02.012Z,72.31
2023-04-23T03:09:32.921Z,72.36
2023-04-23T03:12:00.377Z,71.46
2023-04-23T03:14:27.903Z,71.73
2023-04-23T03:16:55.893Z,71.37
2023-04-23T03:19:23.588Z,70.97
2023-04-23T03:21:51.076Z,70.20
2023-04-23T03:24:18.828Z,70.19
2023-04-23T03:26:46.354Z,69.88
2023-04-23T03:29:13.798Z,69.63
2023-04-23T03:31:41.490Z,69.72
2023-04-23T03:34:09.511Z,70.62
2023-04-23T03:36:37.105Z,70.92
2023-04-23T03:39:04.933Z,72.45
2023-04-23T03:41:33.745Z,73.02
2023-04-23T03:44:01.690Z,73.60
2023-04-23T03:46:29.805Z,73.15
2023-04-23T03:48:57.283Z,73.01
2023-04-23T03:51:25.045Z,72.92
2023-04-23T03:53:52.720Z,73.30
2023-04-23T03:56:21.748Z,72.63
2023-04-23T03:58:49.828Z,73.01
2023-04-23T04:01:18.255Z,73.56
2023-04-23T04:03:46.186Z,73.25
2023-04-23T04:06:13.746Z,73.31
2023-04-23T04:08:41.259Z,73.19
2023-04-23T04:11:08.940Z,72.42
2023-04-23T04:13:36.391Z,72.09
2023-04-23T04:16:03.978Z,73.17
2023-04-23T04:18:31.844Z,73.45
2023-04-23T04:20:59.271Z,72.79
2023-04-23T04:23:26.935Z,72.18
2023-04-23T04:25:56.567Z,72.50
2023-04-23T04:28:25.299Z,72.57
2023-04-23T04:30:57.592Z,70.78
2023-04-23T04:33:26.000Z,69.90
2023-04-23T04:35:54.843Z,72.75
2023-04-23T04:38:22.427Z,73.03
2023-04-23T04:40:50.607Z,70.97
2023-04-23T04:43:18.517Z,70.14
2023-04-23T04:45:45.957Z,69.91
2023-04-23T04:48:13.591Z,71.39
2023-04-23T04:50:40.980Z,70.38
2023-04-23T04:53:08.396Z,69.51
2023-04-23T04:55:36.056Z,69.02
2023-04-23T04:58:03.481Z,68.92
2023-04-23T05:00:30.882Z,68.43
2023-04-23T05:02:59.031Z,68.04
2023-04-23T05:05:27.268Z,68.17
2023-04-23T05:07:54.943Z,67.47
2023-04-23T05:10:22.730Z,66.91
2023-04-23T05:12:51.894Z,66.30
2023-04-23T05:15:19.535Z,65.41
2023-04-23T05:17:47.335Z,65.32
2023-04-23T05:20:15.304Z,64.58
2023-04-23T05:22:43.199Z,64.13
2023-04-23T05:25:14.635Z,64.49
2023-04-23T05:27:42.188Z,64.72
2023-04-23T05:30:11.135Z,64.39
2023-04-23T05:32:39.294Z,64.20
2023-04-23T05:35:09.722Z,64.17
2023-04-23T05:37:37.148Z,63.68
2023-04-23T05:40:07.293Z,63.48
2023-04-23T05:42:36.028Z,63.41
2023-04-23T05:45:03.718Z,63.52
2023-04-23T05:47:34.321Z,60.49
2023-04-23T05:50:02.787Z,60.25
2023-04-23T05:52:33.547Z,60.25
2023-04-23T05:55:01.523Z,60.66
2023-04-23T05:57:28.969Z,59.09
2023-04-23T05:59:56.609Z,58.41
2023-04-23T06:02:25.311Z,59.02
2023-04-23T06:04:53.256Z,58.80
2023-04-23T06:07:21.147Z,58.17
2023-04-23T06:09:48.770Z,59.39
2023-04-23T06:12:16.438Z,58.88
2023-04-23T06:14:43.931Z,59.07
2023-04-23T06:17:11.502Z,58.38
2023-04-23T06:19:39.183Z,58.37
2023-04-23T06:22:06.557Z,57.15
2023-04-23T06:24:33.956Z,56.12
2023-04-23T06:27:02.840Z,56.25
2023-04-23T06:29:30.960Z,55.68
2023-04-23T06:32:01.805Z,55.27
2023-04-23T06:34:29.527Z,55.37
2023-04-23T06:36:56.950Z,54.64
2023-04-23T06:39:24.380Z,54.27
2023-04-23T06:41:52.116Z,54.08
2023-04-23T06:44:21.015Z,54.35
2023-04-23T06:46:48.598Z,54.16
2023-04-23T06:49:16.312Z,52.27
2023-04-23T06:51:44.181Z,52.37
2023-04-23T06:54:11.573Z,51.28
2023-04-23T06:56:39.239Z,50.87
2023-04-23T06:59:06.955Z,51.02
2023-04-23T07:01:35.277Z,49.46
2023-04-23T07:04:03.029Z,49.48
2023-04-23T07:06:31.262Z,49.66
2023-04-23T07:08:58.953Z,49.55
2023-04-23T07:11:26.789Z,48.98
2023-04-23T07:13:54.622Z,48.39
2023-04-23T07:16:22.968Z,48.94
2023-04-23T07:18:50.860Z,47.09
2023-04-23T07:21:18.246Z,47.18
2023-04-23T07:23:45.995Z,45.16
2023-04-23T07:26:14.034Z,45.25
2023-04-23T07:28:41.595Z,42.87
2023-04-23T07:31:09.495Z,40.69
2023-04-23T07:33:37.184Z,38.37
2023-04-23T07:36:04.611Z,34.47
2023-04-23T07:38:31.994Z,32.10
2023-04-23T07:41:00.003Z,30.25
2023-04-23T07:43:27.597Z,28.20
2023-04-23T07:45:55.554Z,26.61
2023-04-23T07:48:23.254Z,25.02
2023-04-23T07:50:51.251Z,23.21
2023-04-23T07:53:18.768Z,23.00
2023-04-23T07:55:46.467Z,21.93
2023-04-23T07:58:14.085Z,23.33
2023-04-23T08:00:42.804Z,21.62
2023-04-23T08:03:10.597Z,20.46
2023-04-23T08:05:39.230Z,21.25
2023-04-23T08:08:08.111Z,22.72
2023-04-23T08:10:36.022Z,24.53
2023-04-23T08:13:03.717Z,24.93
2023-04-23T08:15:31.145Z,24.41
2023-04-23T08:17:58.945Z,24.74
2023-04-23T08:20:27.469Z,24.25
2023-04-23T08:22:55.737Z,24.68
2023-04-23T08:25:23.632Z,27.95
2023-04-23T08:27:51.184Z,25.52
2023-04-23T08:30:18.671Z,25.55
2023-04-23T08:32:49.592Z,25.22
2023-04-23T08:35:17.335Z,24.80
2023-04-23T08:37:44.672Z,28.68
2023-04-23T08:40:13.283Z,29.51
2023-04-23T08:42:51.700Z,28.25
2023-04-23T08:45:19.787Z,29.29
2023-04-23T08:47:47.037Z,27.85
2023-04-23T08:50:18.769Z,29.53
2023-04-23T08:52:56.555Z,30.62
2023-04-23T08:55:24.191Z,30.69
2023-04-23T08:57:51.691Z,30.70
2023-04-23T09:00:19.565Z,30.70
2023-04-23T09:02:47.691Z,29.37
2023-04-23T09:05:15.485Z,28.98
2023-04-23T09:07:42.747Z,30.75
2023-04-23T09:10:11.626Z,29.90
2023-04-23T09:12:40.248Z,28.65
2023-04-23T09:15:10.949Z,29.45
2023-04-23T09:17:43.418Z,29.24
2023-04-23T09:20:10.957Z,27.54
2023-04-23T09:22:38.363Z,28.25
2023-04-23T09:25:06.153Z,30.18
2023-04-23T09:27:33.330Z,27.66
2023-04-23T09:30:04.937Z,27.77
2023-04-23T09:32:35.685Z,28.13
2023-04-23T09:35:06.841Z,25.27
2023-04-23T09:37:34.331Z,25.33
2023-04-23T09:40:03.841Z,28.19
2023-04-23T09:42:31.559Z,27.04
2023-04-23T09:45:08.583Z,27.15
2023-04-23T09:47:38.565Z,27.03
2023-04-23T09:50:06.119Z,28.31
2023-04-23T09:52:34.097Z,25.74
2023-04-23T09:55:01.826Z,24.01
2023-04-23T09:57:29.034Z,23.99
2023-04-23T10:00:03.739Z,25.69
2023-04-23T10:02:40.063Z,23.73
2023-04-23T10:05:25.049Z,26.50
2023-04-23T10:07:56.323Z,25.88
2023-04-23T10:10:24.169Z,27.44
2023-04-23T10:12:55.284Z,27.71
2023-04-23T10:15:26.920Z,26.03
2023-04-23T10:17:54.761Z,26.61
2023-04-23T10:20:22.825Z,25.54
2023-04-23T10:22:50.064Z,26.24
2023-04-23T10:25:17.478Z,26.12
2023-04-23T10:27:53.064Z,24.38
2023-04-23T10:30:22.395Z,25.02
2023-04-23T10:32:49.914Z,24.60
2023-04-23T10:35:17.271Z,26.24
2023-04-23T10:37:44.965Z,26.18
2023-04-23T10:40:14.129Z,27.62
2023-04-23T10:42:41.661Z,24.18
2023-04-23T10:45:23.324Z,22.67
2023-04-23T10:47:52.815Z,21.34
2023-04-23T10:50:22.539Z,22.58
2023-04-23T10:52:53.459Z,23.68
2023-04-23T10:55:22.154Z,23.01
2023-04-23T10:58:15.872Z,22.50
2023-04-23T11:00:43.463Z,21.25
2023-04-23T11:03:30.555Z,19.94
2023-04-23T11:06:01.797Z,19.77
2023-04-23T11:08:33.520Z,20.08
2023-04-23T11:11:01.641Z,20.68
2023-04-23T11:13:29.597Z,20.22
2023-04-23T11:16:16.078Z,18.98
2023-04-23T11:19:03.728Z,18.41
2023-04-23T11:21:49.799Z,19.50
2023-04-23T11:24:17.262Z,18.53
2023-04-23T11:26:44.391Z,19.53
2023-04-23T11:29:14.243Z,19.77
2023-04-23T11:31:54.473Z,18.33
2023-04-23T11:34:28.481Z,18.99
2023-04-23T11:36:56.775Z,18.64
2023-04-23T11:39:24.756Z,19.51
2023-04-23T11:41:52.652Z,18.98
2023-04-23T11:44:21.496Z,18.42
2023-04-23T11:46:49.588Z,17.87
2023-04-23T11:49:17.314Z,18.40
2023-04-23T11:51:45.096Z,18.52
2023-04-23T11:54:13.622Z,19.04
2023-04-23T11:56:41.491Z,18.40
2023-04-23T11:59:09.612Z,18.39
2023-04-23T12:01:40.985Z,18.15
2023-04-23T12:04:21.856Z,21.58
2023-04-23T12:06:49.641Z,20.87
2023-04-23T12:09:18.040Z,20.16
2023-04-23T12:11:45.679Z,19.37
2023-04-23T12:14:13.435Z,19.11
2023-04-23T12:16:42.253Z,18.81
2023-04-23T12:19:19.587Z,20.29
2023-04-23T12:22:08.557Z,20.38
2023-04-23T12:24:48.605Z,19.79
2023-04-23T12:27:16.815Z,20.01
2023-04-23T12:29:44.107Z,19.75
2023-04-23T12:32:11.699Z,19.93
2023-04-23T12:34:42.329Z,18.98
2023-04-23T12:37:09.690Z,20.12
2023-04-23T12:39:36.853Z,21.13
2023-04-23T12:42:09.721Z,21.54
2023-04-23T12:44:38.415Z,20.94
2023-04-23T12:47:07.404Z,21.77
2023-04-23T12:49:35.471Z,23.39
2023-04-23T12:52:03.126Z,23.27
2023-04-23T12:54:31.441Z,22.39
2023-04-23T12:56:59.652Z,20.36
2023-04-23T12:59:26.988Z,18.79
2023-04-23T13:01:54.555Z,19.64
2023-04-23T13:04:21.755Z,21.90
2023-04-23T13:06:49.042Z,19.23
2023-04-23T13:09:17.712Z,18.56
2023-04-23T13:11:46.951Z,18.71
2023-04-23T13:14:14.224Z,21.07
2023-04-23T13:16:42.506Z,20.61
2023-04-23T13:19:09.933Z,23.17
2023-04-23T13:21:37.083Z,20.57
2023-04-23T13:24:04.661Z,21.82
2023-04-23T13:26:34.853Z,21.21
2023-04-23T13:29:02.485Z,22.14
2023-04-23T13:31:30.336Z,23.19
2023-04-23T13:33:57.854Z,22.77
2023-04-23T13:36:25.040Z,21.75
2023-04-23T13:38:52.758Z,21.11
2023-04-23T13:41:19.965Z,21.62
2023-04-23T13:43:47.137Z,22.35
2023-04-23T13:46:14.667Z,22.67
2023-04-23T13:48:41.934Z,22.67
2023-04-23T13:51:21.757Z,23.82
2023-04-23T13:53:59.233Z,23.88
2023-04-23T13:56:26.927Z,24.68
2023-04-23T13:59:02.077Z,22.32
2023-04-23T14:01:35.911Z,21.41
2023-04-23T14:04:04.361Z,23.16
2023-04-23T14:06:32.009Z,24.24
2023-04-23T14:08:59.186Z,23.91
2023-04-23T14:11:26.630Z,23.61
2023-04-23T14:13:54.192Z,21.37
2023-04-23T14:16:21.397Z,21.95
2023-04-23T14:18:48.954Z,23.89
2023-04-23T14:21:16.475Z,22.96
2023-04-23T14:23:43.685Z,22.05
2023-04-23T14:26:11.200Z,23.44
2023-04-23T14:28:45.042Z,23.78
2023-04-23T14:31:12.560Z,23.92
2023-04-23T14:33:39.911Z,24.40
2023-04-23T14:36:07.175Z,22.87
2023-04-23T14:38:34.672Z,22.10
2023-04-23T14:41:04.651Z,21.78
2023-04-23T14:43:33.671Z,24.31
2023-04-23T14:46:01.830Z,22.57
2023-04-23T14:48:29.324Z,21.49
2023-04-23T14:50:56.491Z,22.02
2023-04-23T14:53:23.944Z,20.97
2023-04-23T14:55:51.343Z,21.95
2023-04-23T14:58:18.526Z,20.60
2023-04-23T15:00:46.007Z,20.79
2023-04-23T15:03:14.799Z,21.67
2023-04-23T15:05:42.779Z,21.79
2023-04-23T15:08:10.303Z,21.08
2023-04-23T15:10:37.578Z,20.81
2023-04-23T15:13:13.707Z,21.21
2023-04-23T15:16:02.842Z,21.12
2023-04-23T15:18:30.049Z,21.50
2023-04-23T15:20:57.448Z,22.17
2023-04-23T15:23:24.677Z,22.92
2023-04-23T15:25:51.846Z,24.16
2023-04-23T15:28:19.332Z,23.17
2023-04-23T15:30:47.671Z,22.96
2023-04-23T15:33:15.129Z,22.48
2023-04-23T15:35:43.492Z,23.17
2023-04-23T15:38:10.870Z,22.07
2023-04-23T15:40:42.259Z,22.99
2023-04-23T15:43:15.916Z,23.09
2023-04-23T15:45:43.542Z,22.39
2023-04-23T15:48:11.074Z,23.85
2023-04-23T15:50:38.404Z,22.49
2023-04-23T15:53:05.691Z,22.88
2023-04-23T15:55:34.111Z,22.96
2023-04-23T15:58:06.309Z,22.10
2023-04-23T16:00:34.256Z,22.31
2023-04-23T16:03:04.935Z,22.71
2023-04-23T16:05:33.116Z,21.96
2023-04-23T16:08:01.108Z,23.00
2023-04-23T16:10:31.357Z,22.54
2023-04-23T16:12:58.686Z,22.78
2023-04-23T16:15:26.388Z,23.21
2023-04-23T16:17:55.891Z,22.49
2023-04-23T16:20:23.566Z,22.60
2023-04-23T16:22:50.890Z,22.65
2023-04-23T16:25:18.357Z,22.37
2023-04-23T16:27:45.858Z,22.66
2023-04-23T16:30:13.766Z,23.00
2023-04-23T16:32:41.621Z,23.45
2023-04-23T16:35:09.501Z,22.49
2023-04-23T16:37:37.126Z,23.19
2023-04-23T16:40:05.958Z,22.62
2023-04-23T16:42:33.662Z,22.82
2023-04-23T16:45:01.360Z,22.56
2023-04-23T16:47:29.605Z,22.56
2023-04-23T16:49:57.342Z,22.63
2023-04-23T16:52:26.510Z,23.03
2023-04-23T16:54:53.954Z,23.63
2023-04-23T16:57:21.123Z,24.04
2023-04-23T16:59:48.294Z,24.17
2023-04-23T17:02:16.249Z,24.41
2023-04-23T17:04:43.841Z,24.94
2023-04-23T17:07:11.560Z,24.37
2023-04-23T17:09:39.363Z,25.25
2023-04-23T17:12:06.524Z,25.53
2023-04-23T17:14:34.237Z,25.72
2023-04-23T17:17:02.053Z,26.56
2023-04-23T17:19:29.294Z,26.27
2023-04-23T17:21:57.869Z,26.08
2023-04-23T17:24:26.116Z,25.84
2023-04-23T17:26:53.919Z,26.33
2023-04-23T17:29:22.688Z,26.89
2023-04-23T17:31:51.031Z,26.91
2023-04-23T17:34:19.273Z,26.75
2023-04-23T17:36:47.587Z,27.31
2023-04-23T17:39:20.431Z,27.84
2023-04-23T17:41:48.143Z,28.23
2023-04-23T17:44:16.357Z,29.36
2023-04-23T17:46:44.633Z,27.93
2023-04-23T17:49:12.268Z,29.98
2023-04-23T17:51:40.593Z,31.57
2023-04-23T17:54:08.532Z,32.76
2023-04-23T17:56:36.439Z,33.29
2023-04-23T17:59:04.953Z,35.05
2023-04-23T18:01:33.409Z,35.54
2023-04-23T18:04:03.783Z,35.39
2023-04-23T18:06:32.252Z,35.91
2023-04-23T18:09:00.336Z,35.40
2023-04-23T18:11:28.252Z,34.89
2023-04-23T18:13:56.049Z,35.93
2023-04-23T18:16:23.970Z,36.65
2023-04-23T18:18:52.558Z,36.53
2023-04-23T18:21:20.401Z,36.79
2023-04-23T18:23:50.712Z,37.33
2023-04-23T18:26:19.655Z,38.00
2023-04-23T18:28:47.690Z,35.11
2023-04-23T18:31:15.016Z,35.72
2023-04-23T18:33:43.472Z,35.87
2023-04-23T18:36:21.973Z,36.04
2023-04-23T18:38:50.168Z,36.75
2023-04-23T18:41:17.906Z,37.62
2023-04-23T18:43:45.325Z,37.29
2023-04-23T18:46:13.777Z,36.43
2023-04-23T18:48:45.815Z,36.01
2023-04-23T18:51:14.842Z,35.96
2023-04-23T18:53:42.763Z,35.77
2023-04-23T18:56:12.853Z,37.80
2023-04-23T18:58:41.391Z,38.05
2023-04-23T19:01:13.925Z,39.15
2023-04-23T19:03:43.444Z,38.80
2023-04-23T19:06:11.789Z,37.44
2023-04-23T19:08:40.139Z,38.80
2023-04-23T19:11:09.157Z,38.31
2023-04-23T19:13:36.833Z,38.92
2023-04-23T19:16:07.838Z,38.84
2023-04-23T19:18:39.287Z,39.77
2023-04-23T19:21:07.568Z,41.26
2023-04-23T19:23:35.819Z,42.55
2023-04-23T19:26:04.520Z,42.29
2023-04-23T19:28:33.094Z,40.98
2023-04-23T19:31:00.761Z,41.25
2023-04-23T19:33:28.838Z,40.67
2023-04-23T19:35:57.474Z,41.12
2023-04-23T19:38:26.130Z,41.85
2023-04-23T19:40:54.246Z,42.34
2023-04-23T19:43:22.223Z,42.43
2023-04-23T19:45:52.457Z,40.97
2023-04-23T19:48:20.999Z,40.92
2023-04-23T19:50:49.051Z,41.26
2023-04-23T19:53:17.442Z,42.16
2023-04-23T19:55:45.578Z,41.73
2023-04-23T19:58:14.293Z,41.51
2023-04-23T20:00:43.363Z,42.44
2023-04-23T20:03:11.277Z,41.88
2023-04-23T20:05:43.204Z,41.58
2023-04-23T20:08:26.115Z,40.81
2023-04-23T20:10:54.047Z,40.38
2023-04-23T20:13:21.765Z,40.76
2023-04-23T20:15:50.192Z,40.43
2023-04-23T20:18:17.689Z,40.77
2023-04-23T20:20:45.743Z,41.51
2023-04-23T20:23:13.470Z,42.15
2023-04-23T20:25:44.544Z,42.85
2023-04-23T20:28:13.776Z,42.58
2023-04-23T20:30:41.149Z,43.71
2023-04-23T20:33:08.645Z,41.97
2023-04-23T20:35:36.667Z,41.79
2023-04-23T20:38:03.823Z,42.92
2023-04-23T20:40:34.470Z,43.16
2023-04-23T20:43:02.141Z,41.46
2023-04-23T20:45:29.471Z,43.38
2023-04-23T20:47:57.594Z,43.73
2023-04-23T20:50:25.150Z,43.60
2023-04-23T20:52:52.468Z,45.16
2023-04-23T20:55:19.696Z,43.99
2023-04-23T20:57:47.186Z,43.90
2023-04-23T21:00:14.472Z,41.86
2023-04-23T21:02:41.797Z,42.75
2023-04-23T21:05:11.136Z,43.41
2023-04-23T21:07:39.770Z,41.62
2023-04-23T21:10:07.159Z,41.12
2023-04-23T21:12:34.589Z,41.47
2023-04-23T21:15:01.980Z,41.28
2023-04-23T21:17:29.226Z,43.19
2023-04-23T21:19:56.680Z,41.62
2023-04-23T21:22:23.872Z,40.58
2023-04-23T21:24:51.170Z,40.36
2023-04-23T21:27:21.863Z,39.97
2023-04-23T21:29:49.284Z,41.35
2023-04-23T21:32:16.682Z,40.47
2023-04-23T21:34:44.174Z,40.09
2023-04-23T21:37:11.433Z,40.19
2023-04-23T21:39:38.589Z,40.34
2023-04-23T21:42:06.091Z,40.76
2023-04-23T21:44:35.939Z,40.51
2023-04-23T21:47:03.369Z,40.89
2023-04-23T21:49:31.680Z,40.51
2023-04-23T21:52:00.445Z,39.97
2023-04-23T21:54:27.745Z,40.62
2023-04-23T21:56:55.259Z,41.16
2023-04-23T21:59:24.403Z,41.31
2023-04-23T22:01:51.548Z,41.08
2023-04-23T22:04:19.214Z,41.45
2023-04-23T22:06:46.555Z,41.33
2023-04-23T22:09:14.156Z,42.26
2023-04-23T22:11:48.881Z,41.50
2023-04-23T22:14:22.736Z,41.24
2023-04-23T22:16:51.268Z,41.20
2023-04-23T22:19:18.930Z,41.65
2023-04-23T22:21:46.194Z,41.73
2023-04-23T22:24:13.553Z,41.96
2023-04-23T22:26:40.832Z,42.31
2023-04-23T22:29:08.327Z,42.49
2023-04-23T22:31:35.803Z,42.20
2023-04-23T22:34:03.005Z,43.18
2023-04-23T22:36:31.760Z,43.69
2023-04-23T22:38:59.173Z,43.30
2023-04-23T22:41:26.444Z,42.77
2023-04-23T22:43:54.257Z,42.53
2023-04-23T22:46:21.814Z,44.10
2023-04-23T22:48:49.822Z,44.37
2023-04-23T22:51:18.787Z,43.92
2023-04-23T22:53:46.225Z,43.15
2023-04-23T22:56:13.347Z,43.07
2023-04-23T22:58:40.477Z,43.54
2023-04-23T23:01:07.959Z,44.86
2023-04-23T23:03:35.351Z,44.49
2023-04-23T23:06:02.685Z,43.76
2023-04-23T23:08:30.120Z,43.75
2023-04-23T23:10:57.229Z,42.97
2023-04-23T23:13:24.378Z,44.51
2023-04-23T23:15:51.882Z,45.04
2023-04-23T23:18:18.997Z,43.47
2023-04-23T23:20:46.488Z,43.74
2023-04-23T23:23:13.889Z,44.04
2023-04-23T23:25:41.057Z,43.18
2023-04-23T23:28:08.276Z,42.91
2023-04-23T23:30:35.828Z,43.94
2023-04-23T23:33:03.156Z,44.52
2023-04-23T23:35:30.340Z,44.55
2023-04-23T23:37:57.900Z,44.86
2023-04-23T23:40:25.136Z,44.71
2023-04-23T23:42:52.295Z,44.93
2023-04-23T23:45:19.841Z,44.66
2023-04-23T23:47:47.008Z,45.88
2023-04-23T23:50:14.200Z,46.69
2023-04-23T23:52:41.597Z,46.61
2023-04-23T23:55:10.250Z,46.77
2023-04-23T23:57:37.498Z,45.76
